sensor_id;sensor_type;location;lat;lon;timestamp;P1;durP1;ratioP1;P2;durP2;ratioP2
22318;SDS011;11327;52.334;9.506;2022-09-03T00:01:54;2.17;;;1.25;;
22318;SDS011;11327;52.334;9.506;2022-09-03T00:09:24;2.52;;;1.27;;
22318;SDS011;11327;52.334;9.506;2022-09-03T00:12:47;1.85;;;1.12;;
22318;SDS011;11327;52.334;9.506;2022-09-03T00:16:13;2.65;;;1.12;;
22318;SDS011;11327;52.334;9.506;2022-09-03T00:19:44;1.47;;;1.10;;
22318;SDS011;11327;52.334;9.506;2022-09-03T00:23:05;2.20;;;1.20;;
22318;SDS011;11327;52.334;9.506;2022-09-03T00:26:29;2.30;;;1.10;;
22318;SDS011;11327;52.334;9.506;2022-09-03T00:29:56;2.80;;;1.30;;
22318;SDS011;11327;52.334;9.506;2022-09-03T00:33:23;1.87;;;1.27;;
22318;SDS011;11327;52.334;9.506;2022-09-03T00:36:47;2.40;;;1.32;;
22318;SDS011;11327;52.334;9.506;2022-09-03T00:40:12;2.25;;;1.20;;
22318;SDS011;11327;52.334;9.506;2022-09-03T00:54:45;2.27;;;1.10;;
22318;SDS011;11327;52.334;9.506;2022-09-03T00:58:25;2.70;;;1.32;;
22318;SDS011;11327;52.334;9.506;2022-09-03T01:09:27;1.77;;;1.02;;
22318;SDS011;11327;52.334;9.506;2022-09-03T01:13:08;2.95;;;1.40;;
22318;SDS011;11327;52.334;9.506;2022-09-03T01:27:40;2.15;;;1.25;;
22318;SDS011;11327;52.334;9.506;2022-09-03T01:35:01;2.47;;;1.30;;
22318;SDS011;11327;52.334;9.506;2022-09-03T01:42:01;1.70;;;1.27;;
22318;SDS011;11327;52.334;9.506;2022-09-03T01:45:46;3.02;;;1.40;;
22318;SDS011;11327;52.334;9.506;2022-09-03T01:52:42;3.67;;;1.30;;
22318;SDS011;11327;52.334;9.506;2022-09-03T02:03:21;2.33;;;1.30;;
22318;SDS011;11327;52.334;9.506;2022-09-03T02:06:43;2.17;;;1.50;;
22318;SDS011;11327;52.334;9.506;2022-09-03T02:10:07;2.52;;;1.60;;
22318;SDS011;11327;52.334;9.506;2022-09-03T02:13:40;3.33;;;1.70;;
22318;SDS011;11327;52.334;9.506;2022-09-03T02:16:58;3.72;;;1.75;;
22318;SDS011;11327;52.334;9.506;2022-09-03T02:20:22;3.60;;;1.75;;
22318;SDS011;11327;52.334;9.506;2022-09-03T02:23:46;2.60;;;1.70;;
22318;SDS011;11327;52.334;9.506;2022-09-03T02:27:08;3.92;;;1.80;;
22318;SDS011;11327;52.334;9.506;2022-09-03T02:30:29;3.45;;;1.70;;
22318;SDS011;11327;52.334;9.506;2022-09-03T02:33:50;3.42;;;1.80;;
22318;SDS011;11327;52.334;9.506;2022-09-03T02:37:12;2.95;;;1.92;;
22318;SDS011;11327;52.334;9.506;2022-09-03T02:40:35;3.65;;;1.85;;
22318;SDS011;11327;52.334;9.506;2022-09-03T02:47:30;3.02;;;1.60;;
22318;SDS011;11327;52.334;9.506;2022-09-03T02:50:53;3.00;;;1.90;;
22318;SDS011;11327;52.334;9.506;2022-09-03T02:54:14;2.72;;;1.90;;
22318;SDS011;11327;52.334;9.506;2022-09-03T02:57:36;2.55;;;1.60;;
22318;SDS011;11327;52.334;9.506;2022-09-03T03:00:57;2.47;;;1.75;;
22318;SDS011;11327;52.334;9.506;2022-09-03T03:04:20;2.98;;;1.80;;
22318;SDS011;11327;52.334;9.506;2022-09-03T03:07:41;3.20;;;1.85;;
22318;SDS011;11327;52.334;9.506;2022-09-03T03:11:02;5.42;;;2.10;;
22318;SDS011;11327;52.334;9.506;2022-09-03T03:14:23;3.95;;;2.05;;
22318;SDS011;11327;52.334;9.506;2022-09-03T03:17:44;3.58;;;1.85;;
22318;SDS011;11327;52.334;9.506;2022-09-03T03:21:06;5.72;;;1.98;;
22318;SDS011;11327;52.334;9.506;2022-09-03T03:24:29;2.27;;;1.80;;
22318;SDS011;11327;52.334;9.506;2022-09-03T03:27:53;4.00;;;2.15;;
22318;SDS011;11327;52.334;9.506;2022-09-03T03:31:20;4.00;;;1.80;;
22318;SDS011;11327;52.334;9.506;2022-09-03T03:34:41;3.80;;;1.82;;
22318;SDS011;11327;52.334;9.506;2022-09-03T03:38:02;2.70;;;1.67;;
22318;SDS011;11327;52.334;9.506;2022-09-03T03:41:28;2.75;;;1.70;;
22318;SDS011;11327;52.334;9.506;2022-09-03T03:44:48;3.50;;;1.70;;
22318;SDS011;11327;52.334;9.506;2022-09-03T03:48:09;2.33;;;1.85;;
22318;SDS011;11327;52.334;9.506;2022-09-03T03:51:30;4.33;;;1.90;;
22318;SDS011;11327;52.334;9.506;2022-09-03T03:54:52;2.37;;;1.70;;
22318;SDS011;11327;52.334;9.506;2022-09-03T03:58:13;3.20;;;1.70;;
22318;SDS011;11327;52.334;9.506;2022-09-03T04:01:34;2.85;;;1.77;;
22318;SDS011;11327;52.334;9.506;2022-09-03T04:04:55;3.12;;;1.77;;
22318;SDS011;11327;52.334;9.506;2022-09-03T04:08:16;4.70;;;1.70;;
22318;SDS011;11327;52.334;9.506;2022-09-03T04:11:37;2.62;;;1.67;;
22318;SDS011;11327;52.334;9.506;2022-09-03T04:14:59;2.80;;;1.65;;
22318;SDS011;11327;52.334;9.506;2022-09-03T04:18:19;2.47;;;1.82;;
22318;SDS011;11327;52.334;9.506;2022-09-03T04:21:41;2.58;;;1.60;;
22318;SDS011;11327;52.334;9.506;2022-09-03T04:25:02;2.02;;;1.50;;
22318;SDS011;11327;52.334;9.506;2022-09-03T04:28:23;2.83;;;1.37;;
22318;SDS011;11327;52.334;9.506;2022-09-03T04:31:45;2.15;;;1.82;;
22318;SDS011;11327;52.334;9.506;2022-09-03T04:35:08;3.10;;;1.80;;
22318;SDS011;11327;52.334;9.506;2022-09-03T04:38:29;3.83;;;1.50;;
22318;SDS011;11327;52.334;9.506;2022-09-03T04:41:51;2.20;;;1.75;;
22318;SDS011;11327;52.334;9.506;2022-09-03T04:45:12;3.47;;;1.70;;
22318;SDS011;11327;52.334;9.506;2022-09-03T04:48:35;3.77;;;2.25;;
22318;SDS011;11327;52.334;9.506;2022-09-03T04:51:57;4.15;;;1.90;;
22318;SDS011;11327;52.334;9.506;2022-09-03T04:55:18;2.77;;;1.90;;
22318;SDS011;11327;52.334;9.506;2022-09-03T04:58:44;2.33;;;1.67;;
22318;SDS011;11327;52.334;9.506;2022-09-03T05:02:03;4.35;;;2.12;;
22318;SDS011;11327;52.334;9.506;2022-09-03T05:05:24;3.90;;;1.80;;
22318;SDS011;11327;52.334;9.506;2022-09-03T05:08:48;5.08;;;1.98;;
22318;SDS011;11327;52.334;9.506;2022-09-03T05:12:10;1.70;;;1.40;;
22318;SDS011;11327;52.334;9.506;2022-09-03T05:15:32;2.35;;;1.57;;
22318;SDS011;11327;52.334;9.506;2022-09-03T05:18:54;2.25;;;1.52;;
22318;SDS011;11327;52.334;9.506;2022-09-03T05:22:16;2.42;;;1.62;;
22318;SDS011;11327;52.334;9.506;2022-09-03T05:25:39;2.98;;;1.65;;
22318;SDS011;11327;52.334;9.506;2022-09-03T05:29:00;1.98;;;1.50;;
22318;SDS011;11327;52.334;9.506;2022-09-03T05:32:25;2.72;;;1.60;;
22318;SDS011;11327;52.334;9.506;2022-09-03T05:35:48;2.90;;;1.50;;
22318;SDS011;11327;52.334;9.506;2022-09-03T05:39:08;2.58;;;1.60;;
22318;SDS011;11327;52.334;9.506;2022-09-03T05:42:29;3.25;;;1.60;;
22318;SDS011;11327;52.334;9.506;2022-09-03T05:46:01;2.08;;;1.52;;
22318;SDS011;11327;52.334;9.506;2022-09-03T05:49:22;2.12;;;1.45;;
22318;SDS011;11327;52.334;9.506;2022-09-03T05:52:43;2.40;;;1.50;;
22318;SDS011;11327;52.334;9.506;2022-09-03T05:56:05;3.55;;;1.52;;
22318;SDS011;11327;52.334;9.506;2022-09-03T05:59:29;4.60;;;1.80;;
22318;SDS011;11327;52.334;9.506;2022-09-03T06:02:51;1.90;;;1.35;;
22318;SDS011;11327;52.334;9.506;2022-09-03T06:06:13;4.67;;;1.60;;
22318;SDS011;11327;52.334;9.506;2022-09-03T06:09:34;2.35;;;1.32;;
22318;SDS011;11327;52.334;9.506;2022-09-03T06:12:56;3.30;;;1.35;;
22318;SDS011;11327;52.334;9.506;2022-09-03T06:16:19;2.92;;;1.37;;
22318;SDS011;11327;52.334;9.506;2022-09-03T06:19:41;2.77;;;1.22;;
22318;SDS011;11327;52.334;9.506;2022-09-03T06:23:04;3.20;;;1.60;;
22318;SDS011;11327;52.334;9.506;2022-09-03T06:26:25;2.83;;;1.60;;
22318;SDS011;11327;52.334;9.506;2022-09-03T06:29:49;4.17;;;1.80;;
22318;SDS011;11327;52.334;9.506;2022-09-03T06:33:09;2.45;;;1.40;;
22318;SDS011;11327;52.334;9.506;2022-09-03T06:36:31;1.95;;;1.25;;
22318;SDS011;11327;52.334;9.506;2022-09-03T06:39:52;2.72;;;1.20;;
22318;SDS011;11327;52.334;9.506;2022-09-03T06:43:13;3.95;;;1.40;;
22318;SDS011;11327;52.334;9.506;2022-09-03T06:46:34;2.65;;;1.30;;
22318;SDS011;11327;52.334;9.506;2022-09-03T06:49:58;2.45;;;1.50;;
22318;SDS011;11327;52.334;9.506;2022-09-03T06:53:21;3.87;;;1.35;;
22318;SDS011;11327;52.334;9.506;2022-09-03T06:56:42;5.58;;;1.37;;
22318;SDS011;11327;52.334;9.506;2022-09-03T07:00:04;4.45;;;1.30;;
22318;SDS011;11327;52.334;9.506;2022-09-03T07:03:26;3.17;;;1.60;;
22318;SDS011;11327;52.334;9.506;2022-09-03T07:06:47;1.98;;;1.37;;
22318;SDS011;11327;52.334;9.506;2022-09-03T07:10:08;3.70;;;1.47;;
22318;SDS011;11327;52.334;9.506;2022-09-03T07:13:29;3.33;;;1.30;;
22318;SDS011;11327;52.334;9.506;2022-09-03T07:16:50;2.25;;;1.57;;
22318;SDS011;11327;52.334;9.506;2022-09-03T07:20:11;3.15;;;1.50;;
22318;SDS011;11327;52.334;9.506;2022-09-03T07:23:33;2.45;;;1.40;;
22318;SDS011;11327;52.334;9.506;2022-09-03T07:26:55;3.30;;;1.32;;
22318;SDS011;11327;52.334;9.506;2022-09-03T07:30:17;2.55;;;1.45;;
22318;SDS011;11327;52.334;9.506;2022-09-03T07:33:41;2.52;;;1.25;;
22318;SDS011;11327;52.334;9.506;2022-09-03T07:37:02;3.90;;;1.30;;
22318;SDS011;11327;52.334;9.506;2022-09-03T07:40:25;3.52;;;1.40;;
22318;SDS011;11327;52.334;9.506;2022-09-03T07:43:46;2.80;;;1.32;;
22318;SDS011;11327;52.334;9.506;2022-09-03T07:47:07;2.98;;;1.40;;
22318;SDS011;11327;52.334;9.506;2022-09-03T07:50:28;3.05;;;1.40;;
22318;SDS011;11327;52.334;9.506;2022-09-03T07:53:52;3.50;;;1.60;;
22318;SDS011;11327;52.334;9.506;2022-09-03T07:57:15;2.20;;;1.50;;
22318;SDS011;11327;52.334;9.506;2022-09-03T08:00:37;2.42;;;1.80;;
22318;SDS011;11327;52.334;9.506;2022-09-03T08:03:59;4.45;;;1.70;;
22318;SDS011;11327;52.334;9.506;2022-09-03T08:07:21;4.00;;;1.80;;
22318;SDS011;11327;52.334;9.506;2022-09-03T08:10:43;4.42;;;1.70;;
22318;SDS011;11327;52.334;9.506;2022-09-03T08:14:05;3.67;;;1.77;;
22318;SDS011;11327;52.334;9.506;2022-09-03T08:17:27;3.08;;;1.65;;
22318;SDS011;11327;52.334;9.506;2022-09-03T08:20:48;3.00;;;1.70;;
22318;SDS011;11327;52.334;9.506;2022-09-03T08:24:09;3.47;;;1.62;;
22318;SDS011;11327;52.334;9.506;2022-09-03T08:27:31;6.53;;;2.10;;
22318;SDS011;11327;52.334;9.506;2022-09-03T08:30:52;4.62;;;1.90;;
22318;SDS011;11327;52.334;9.506;2022-09-03T08:34:13;3.87;;;2.00;;
22318;SDS011;11327;52.334;9.506;2022-09-03T08:37:36;14.78;;;2.42;;
22318;SDS011;11327;52.334;9.506;2022-09-03T08:41:05;4.08;;;1.80;;
22318;SDS011;11327;52.334;9.506;2022-09-03T08:48:08;4.30;;;1.70;;
22318;SDS011;11327;52.334;9.506;2022-09-03T08:51:33;2.70;;;1.80;;
22318;SDS011;11327;52.334;9.506;2022-09-03T08:58:42;3.00;;;1.50;;
22318;SDS011;11327;52.334;9.506;2022-09-03T09:02:20;4.00;;;1.80;;
22318;SDS011;11327;52.334;9.506;2022-09-03T09:05:53;4.33;;;1.50;;
22318;SDS011;11327;52.334;9.506;2022-09-03T09:09:36;3.02;;;1.60;;
22318;SDS011;11327;52.334;9.506;2022-09-03T09:13:12;5.28;;;1.60;;
22318;SDS011;11327;52.334;9.506;2022-09-03T09:24:06;3.85;;;1.47;;
22318;SDS011;11327;52.334;9.506;2022-09-03T09:27:31;3.08;;;1.55;;
22318;SDS011;11327;52.334;9.506;2022-09-03T09:30:53;3.60;;;1.47;;
22318;SDS011;11327;52.334;9.506;2022-09-03T09:34:16;4.17;;;1.65;;
22318;SDS011;11327;52.334;9.506;2022-09-03T09:37:51;6.20;;;1.62;;
22318;SDS011;11327;52.334;9.506;2022-09-03T09:41:15;4.58;;;1.37;;
22318;SDS011;11327;52.334;9.506;2022-09-03T09:44:40;4.03;;;1.60;;
22318;SDS011;11327;52.334;9.506;2022-09-03T09:48:05;2.67;;;1.20;;
22318;SDS011;11327;52.334;9.506;2022-09-03T09:51:28;2.42;;;1.30;;
22318;SDS011;11327;52.334;9.506;2022-09-03T09:54:51;2.00;;;1.17;;
22318;SDS011;11327;52.334;9.506;2022-09-03T09:58:14;4.62;;;1.45;;
22318;SDS011;11327;52.334;9.506;2022-09-03T10:01:35;5.87;;;1.30;;
22318;SDS011;11327;52.334;9.506;2022-09-03T10:05:18;3.65;;;1.35;;
22318;SDS011;11327;52.334;9.506;2022-09-03T10:08:44;2.95;;;1.10;;
22318;SDS011;11327;52.334;9.506;2022-09-03T10:19:18;2.37;;;1.10;;
22318;SDS011;11327;52.334;9.506;2022-09-03T10:22:46;5.47;;;1.92;;
22318;SDS011;11327;52.334;9.506;2022-09-03T10:26:10;5.35;;;1.10;;
22318;SDS011;11327;52.334;9.506;2022-09-03T10:29:34;1.95;;;1.02;;
22318;SDS011;11327;52.334;9.506;2022-09-03T10:40:18;6.05;;;1.30;;
22318;SDS011;11327;52.334;9.506;2022-09-03T10:51:27;2.08;;;1.00;;
22318;SDS011;11327;52.334;9.506;2022-09-03T10:55:04;2.22;;;1.00;;
22318;SDS011;11327;52.334;9.506;2022-09-03T11:05:40;2.58;;;1.00;;
22318;SDS011;11327;52.334;9.506;2022-09-03T11:09:07;4.72;;;1.20;;
22318;SDS011;11327;52.334;9.506;2022-09-03T11:12:32;3.70;;;1.10;;
22318;SDS011;11327;52.334;9.506;2022-09-03T11:16:17;3.27;;;1.10;;
22318;SDS011;11327;52.334;9.506;2022-09-03T11:19:49;4.65;;;1.12;;
22318;SDS011;11327;52.334;9.506;2022-09-03T11:23:18;4.00;;;1.57;;
22318;SDS011;11327;52.334;9.506;2022-09-03T11:26:44;2.22;;;1.10;;
22318;SDS011;11327;52.334;9.506;2022-09-03T11:30:23;2.42;;;0.82;;
22318;SDS011;11327;52.334;9.506;2022-09-03T11:33:46;4.22;;;1.10;;
22318;SDS011;11327;52.334;9.506;2022-09-03T11:37:15;4.92;;;1.10;;
22318;SDS011;11327;52.334;9.506;2022-09-03T11:40:52;2.75;;;0.90;;
22318;SDS011;11327;52.334;9.506;2022-09-03T11:44:22;1.67;;;0.90;;
22318;SDS011;11327;52.334;9.506;2022-09-03T11:47:44;2.40;;;1.00;;
22318;SDS011;11327;52.334;9.506;2022-09-03T11:54:55;2.02;;;1.00;;
22318;SDS011;11327;52.334;9.506;2022-09-03T11:58:18;13.83;;;1.72;;
22318;SDS011;11327;52.334;9.506;2022-09-03T12:05:23;2.85;;;0.95;;
22318;SDS011;11327;52.334;9.506;2022-09-03T12:20:12;2.02;;;1.00;;
22318;SDS011;11327;52.334;9.506;2022-09-03T12:23:41;2.75;;;0.90;;
22318;SDS011;11327;52.334;9.506;2022-09-03T12:27:04;10.28;;;1.30;;
22318;SDS011;11327;52.334;9.506;2022-09-03T12:30:25;3.05;;;0.90;;
22318;SDS011;11327;52.334;9.506;2022-09-03T12:33:52;1.62;;;0.88;;
22318;SDS011;11327;52.334;9.506;2022-09-03T12:37:18;3.37;;;1.10;;
22318;SDS011;11327;52.334;9.506;2022-09-03T12:40:43;1.80;;;1.00;;
22318;SDS011;11327;52.334;9.506;2022-09-03T12:44:04;2.10;;;1.00;;
22318;SDS011;11327;52.334;9.506;2022-09-03T12:47:25;1.35;;;0.88;;
22318;SDS011;11327;52.334;9.506;2022-09-03T12:50:47;0.72;;;0.72;;
22318;SDS011;11327;52.334;9.506;2022-09-03T12:54:09;1.45;;;0.72;;
22318;SDS011;11327;52.334;9.506;2022-09-03T12:57:42;3.95;;;1.02;;
22318;SDS011;11327;52.334;9.506;2022-09-03T13:01:07;1.98;;;0.80;;
22318;SDS011;11327;52.334;9.506;2022-09-03T13:04:31;2.40;;;0.98;;
22318;SDS011;11327;52.334;9.506;2022-09-03T13:07:56;1.95;;;0.90;;
22318;SDS011;11327;52.334;9.506;2022-09-03T13:11:20;1.55;;;0.90;;
22318;SDS011;11327;52.334;9.506;2022-09-03T13:14:44;1.75;;;1.07;;
22318;SDS011;11327;52.334;9.506;2022-09-03T13:36:24;2.15;;;0.90;;
22318;SDS011;11327;52.334;9.506;2022-09-03T13:39:56;5.58;;;1.30;;
22318;SDS011;11327;52.334;9.506;2022-09-03T13:43:26;2.83;;;1.00;;
22318;SDS011;11327;52.334;9.506;2022-09-03T13:46:59;2.77;;;0.90;;
22318;SDS011;11327;52.334;9.506;2022-09-03T13:50:24;2.08;;;1.00;;
22318;SDS011;11327;52.334;9.506;2022-09-03T14:01:22;3.67;;;1.10;;
22318;SDS011;11327;52.334;9.506;2022-09-03T14:04:59;2.12;;;1.15;;
22318;SDS011;11327;52.334;9.506;2022-09-03T14:08:22;3.12;;;1.00;;
22318;SDS011;11327;52.334;9.506;2022-09-03T14:26:53;1.57;;;1.00;;
22318;SDS011;11327;52.334;9.506;2022-09-03T14:30:18;4.03;;;0.80;;
22318;SDS011;11327;52.334;9.506;2022-09-03T14:33:49;1.60;;;1.00;;
22318;SDS011;11327;52.334;9.506;2022-09-03T14:40:45;2.33;;;1.02;;
22318;SDS011;11327;52.334;9.506;2022-09-03T15:06:24;1.45;;;0.90;;
22318;SDS011;11327;52.334;9.506;2022-09-03T15:13:47;2.33;;;0.93;;
22318;SDS011;11327;52.334;9.506;2022-09-03T15:31:41;4.95;;;1.40;;
22318;SDS011;11327;52.334;9.506;2022-09-03T15:35:05;13.65;;;2.20;;
22318;SDS011;11327;52.334;9.506;2022-09-03T15:41:56;2.40;;;1.00;;
22318;SDS011;11327;52.334;9.506;2022-09-03T15:48:58;1.70;;;1.00;;
22318;SDS011;11327;52.334;9.506;2022-09-03T15:56:06;2.95;;;1.15;;
22318;SDS011;11327;52.334;9.506;2022-09-03T15:59:50;3.27;;;1.10;;
22318;SDS011;11327;52.334;9.506;2022-09-03T16:03:12;2.58;;;1.00;;
22318;SDS011;11327;52.334;9.506;2022-09-03T16:10:16;1.45;;;1.10;;
22318;SDS011;11327;52.334;9.506;2022-09-03T16:14:40;2.08;;;0.93;;
22318;SDS011;11327;52.334;9.506;2022-09-03T16:21:29;4.22;;;1.07;;
22318;SDS011;11327;52.334;9.506;2022-09-03T16:25:06;3.85;;;0.98;;
22318;SDS011;11327;52.334;9.506;2022-09-03T16:54:18;1.77;;;1.10;;
22318;SDS011;11327;52.334;9.506;2022-09-03T17:55:59;2.90;;;1.40;;
22318;SDS011;11327;52.334;9.506;2022-09-03T17:59:37;1.72;;;1.22;;
22318;SDS011;11327;52.334;9.506;2022-09-03T18:03:12;3.08;;;1.55;;
22318;SDS011;11327;52.334;9.506;2022-09-03T18:06:50;1.45;;;1.20;;
22318;SDS011;11327;52.334;9.506;2022-09-03T18:10:18;1.82;;;1.30;;
22318;SDS011;11327;52.334;9.506;2022-09-03T18:17:43;2.77;;;1.40;;
22318;SDS011;11327;52.334;9.506;2022-09-03T18:21:06;1.95;;;1.47;;
22318;SDS011;11327;52.334;9.506;2022-09-03T18:24:53;1.92;;;1.37;;
22318;SDS011;11327;52.334;9.506;2022-09-03T18:28:37;2.33;;;1.20;;
22318;SDS011;11327;52.334;9.506;2022-09-03T18:32:31;1.77;;;1.30;;
22318;SDS011;11327;52.334;9.506;2022-09-03T18:36:11;2.75;;;1.70;;
22318;SDS011;11327;52.334;9.506;2022-09-03T18:39:51;1.82;;;1.25;;
22318;SDS011;11327;52.334;9.506;2022-09-03T19:10:53;2.83;;;1.40;;
22318;SDS011;11327;52.334;9.506;2022-09-03T19:22:38;2.12;;;1.60;;
22318;SDS011;11327;52.334;9.506;2022-09-03T19:26:20;2.95;;;1.60;;
22318;SDS011;11327;52.334;9.506;2022-09-03T19:30:15;1.87;;;1.45;;
22318;SDS011;11327;52.334;9.506;2022-09-03T19:41:52;3.27;;;1.95;;
22318;SDS011;11327;52.334;9.506;2022-09-03T19:45:32;2.10;;;1.42;;
22318;SDS011;11327;52.334;9.506;2022-09-03T19:53:02;2.55;;;1.80;;
22318;SDS011;11327;52.334;9.506;2022-09-03T19:56:46;3.10;;;2.00;;
22318;SDS011;11327;52.334;9.506;2022-09-03T20:00:27;2.75;;;1.90;;
22318;SDS011;11327;52.334;9.506;2022-09-03T20:04:12;3.45;;;1.95;;
22318;SDS011;11327;52.334;9.506;2022-09-03T20:07:53;4.08;;;1.85;;
22318;SDS011;11327;52.334;9.506;2022-09-03T20:11:34;3.08;;;1.80;;
22318;SDS011;11327;52.334;9.506;2022-09-03T20:14:58;5.95;;;2.05;;
22318;SDS011;11327;52.334;9.506;2022-09-03T20:18:45;4.10;;;1.57;;
22318;SDS011;11327;52.334;9.506;2022-09-03T20:22:17;4.42;;;1.90;;
22318;SDS011;11327;52.334;9.506;2022-09-03T20:33:32;5.12;;;1.90;;
22318;SDS011;11327;52.334;9.506;2022-09-03T20:44:12;2.45;;;1.95;;
22318;SDS011;11327;52.334;9.506;2022-09-03T20:47:46;5.83;;;2.37;;
22318;SDS011;11327;52.334;9.506;2022-09-03T20:51:13;3.45;;;2.10;;
22318;SDS011;11327;52.334;9.506;2022-09-03T20:58:06;4.47;;;2.60;;
22318;SDS011;11327;52.334;9.506;2022-09-03T21:01:32;3.22;;;2.20;;
22318;SDS011;11327;52.334;9.506;2022-09-03T21:08:47;4.35;;;2.33;;
22318;SDS011;11327;52.334;9.506;2022-09-03T21:26:20;2.87;;;2.25;;
22318;SDS011;11327;52.334;9.506;2022-09-03T21:29:56;2.87;;;1.80;;
22318;SDS011;11327;52.334;9.506;2022-09-03T21:33:23;3.80;;;2.15;;
22318;SDS011;11327;52.334;9.506;2022-09-03T21:36:50;3.77;;;2.40;;
22318;SDS011;11327;52.334;9.506;2022-09-03T21:40:11;4.70;;;2.20;;
22318;SDS011;11327;52.334;9.506;2022-09-03T21:47:10;3.12;;;2.12;;
22318;SDS011;11327;52.334;9.506;2022-09-03T21:50:41;5.37;;;2.27;;
22318;SDS011;11327;52.334;9.506;2022-09-03T21:54:22;4.00;;;2.30;;
22318;SDS011;11327;52.334;9.506;2022-09-03T22:05:13;2.92;;;2.22;;
22318;SDS011;11327;52.334;9.506;2022-09-03T22:08:40;3.98;;;2.30;;
22318;SDS011;11327;52.334;9.506;2022-09-03T22:12:07;3.30;;;2.12;;
22318;SDS011;11327;52.334;9.506;2022-09-03T22:15:30;3.20;;;2.30;;
22318;SDS011;11327;52.334;9.506;2022-09-03T22:18:52;4.25;;;2.40;;
22318;SDS011;11327;52.334;9.506;2022-09-03T22:22:57;3.55;;;1.90;;
22318;SDS011;11327;52.334;9.506;2022-09-03T22:25:47;2.83;;;2.15;;
22318;SDS011;11327;52.334;9.506;2022-09-03T22:36:38;5.35;;;2.33;;
22318;SDS011;11327;52.334;9.506;2022-09-03T22:50:53;5.35;;;2.50;;
22318;SDS011;11327;52.334;9.506;2022-09-03T22:54:21;2.70;;;2.00;;
22318;SDS011;11327;52.334;9.506;2022-09-03T22:58:19;3.80;;;2.40;;
22318;SDS011;11327;52.334;9.506;2022-09-03T23:05:31;5.10;;;2.80;;
22318;SDS011;11327;52.334;9.506;2022-09-03T23:08:58;3.33;;;2.67;;
22318;SDS011;11327;52.334;9.506;2022-09-03T23:12:29;3.58;;;2.40;;
22318;SDS011;11327;52.334;9.506;2022-09-03T23:16:02;2.70;;;2.12;;
22318;SDS011;11327;52.334;9.506;2022-09-03T23:22:58;4.28;;;2.37;;
22318;SDS011;11327;52.334;9.506;2022-09-03T23:30:04;4.35;;;2.75;;
22318;SDS011;11327;52.334;9.506;2022-09-03T23:33:27;3.95;;;2.90;;
22318;SDS011;11327;52.334;9.506;2022-09-03T23:40:48;3.12;;;2.47;;
22318;SDS011;11327;52.334;9.506;2022-09-03T23:44:17;4.70;;;3.22;;
